sensor_id;sensor_type;location;lat;lon;timestamp;pressure;altitude;pressure_sealevel;temperature;humidity
3812;BME280;1921;49.368;11.068;2022-09-12T00:00:48;97882.38;;;11.99;100.00
3812;BME280;1921;49.368;11.068;2022-09-12T00:03:14;97843.94;;;11.84;100.00
3812;BME280;1921;49.368;11.068;2022-09-12T00:05:42;97870.91;;;12.00;100.00
3812;BME280;1921;49.368;11.068;2022-09-12T00:08:09;97835.59;;;11.66;100.00
3812;BME280;1921;49.368;11.068;2022-09-12T00:10:40;97849.84;;;11.78;100.00
3812;BME280;1921;49.368;11.068;2022-09-12T00:13:07;97884.41;;;12.03;100.00
3812;BME280;1921;49.368;11.068;2022-09-12T00:15:42;97846.31;;;11.94;100.00
3812;BME280;1921;49.368;11.068;2022-09-12T00:18:12;97838.38;;;11.88;100.00
3812;BME280;1921;49.368;11.068;2022-09-12T00:20:43;97828.44;;;11.83;100.00
3812;BME280;1921;49.368;11.068;2022-09-12T00:23:09;97866.78;;;12.05;100.00
3812;BME280;1921;49.368;11.068;2022-09-12T00:25:44;97849.44;;;11.90;100.00
3812;BME280;1921;49.368;11.068;2022-09-12T00:28:12;97840.00;;;11.89;100.00
3812;BME280;1921;49.368;11.068;2022-09-12T00:30:46;97872.25;;;12.10;100.00
3812;BME280;1921;49.368;11.068;2022-09-12T00:33:15;97848.97;;;11.86;100.00
3812;BME280;1921;49.368;11.068;2022-09-12T00:35:47;97823.91;;;11.62;100.00
3812;BME280;1921;49.368;11.068;2022-09-12T00:38:14;97866.47;;;11.85;100.00
3812;BME280;1921;49.368;11.068;2022-09-12T00:40:41;97799.81;;;11.37;100.00
3812;BME280;1921;49.368;11.068;2022-09-12T00:43:39;97890.91;;;11.93;100.00
3812;BME280;1921;49.368;11.068;2022-09-12T00:49:17;97892.53;;;11.94;100.00
3812;BME280;1921;49.368;11.068;2022-09-12T00:51:58;97839.13;;;11.58;100.00
3812;BME280;1921;49.368;11.068;2022-09-12T00:54:30;97810.72;;;11.41;100.00
3812;BME280;1921;49.368;11.068;2022-09-12T00:57:01;97839.22;;;11.65;100.00
3812;BME280;1921;49.368;11.068;2022-09-12T00:59:37;97827.66;;;11.59;100.00
3812;BME280;1921;49.368;11.068;2022-09-12T01:02:06;97864.03;;;11.84;100.00
3812;BME280;1921;49.368;11.068;2022-09-12T01:04:34;97814.41;;;11.61;100.00
3812;BME280;1921;49.368;11.068;2022-09-12T01:07:14;97855.16;;;11.93;100.00
3812;BME280;1921;49.368;11.068;2022-09-12T01:09:41;97847.03;;;11.88;100.00
3812;BME280;1921;49.368;11.068;2022-09-12T01:12:08;97799.41;;;11.63;100.00
3812;BME280;1921;49.368;11.068;2022-09-12T01:14:35;97824.22;;;11.82;100.00
3812;BME280;1921;49.368;11.068;2022-09-12T01:17:02;97850.25;;;11.90;100.00
3812;BME280;1921;49.368;11.068;2022-09-12T01:20:01;97856.75;;;12.09;100.00
3812;BME280;1921;49.368;11.068;2022-09-12T01:28:56;97853.13;;;12.10;100.00
3812;BME280;1921;49.368;11.068;2022-09-12T01:31:36;97855.31;;;12.06;100.00
3812;BME280;1921;49.368;11.068;2022-09-12T01:34:26;97832.06;;;11.97;100.00
3812;BME280;1921;49.368;11.068;2022-09-12T01:40:08;97854.94;;;12.09;100.00
3812;BME280;1921;49.368;11.068;2022-09-12T01:45:52;97780.59;;;11.68;100.00
3812;BME280;1921;49.368;11.068;2022-09-12T01:48:32;97839.25;;;12.09;100.00
3812;BME280;1921;49.368;11.068;2022-09-12T01:52:11;97851.97;;;12.12;100.00
3812;BME280;1921;49.368;11.068;2022-09-12T01:54:23;97825.03;;;11.97;100.00
3812;BME280;1921;49.368;11.068;2022-09-12T01:56:54;97798.41;;;11.79;100.00
3812;BME280;1921;49.368;11.068;2022-09-12T01:59:38;97831.16;;;12.04;100.00
3812;BME280;1921;49.368;11.068;2022-09-12T02:02:15;97815.22;;;11.99;100.00
3812;BME280;1921;49.368;11.068;2022-09-12T02:05:16;97839.00;;;12.19;100.00
3812;BME280;1921;49.368;11.068;2022-09-12T02:07:55;97746.59;;;11.53;100.00
3812;BME280;1921;49.368;11.068;2022-09-12T02:10:27;97835.84;;;12.09;100.00
3812;BME280;1921;49.368;11.068;2022-09-12T02:13:10;97795.97;;;11.77;100.00
3812;BME280;1921;49.368;11.068;2022-09-12T02:15:46;97777.59;;;11.71;100.00
3812;BME280;1921;49.368;11.068;2022-09-12T02:18:15;97819.25;;;12.02;100.00
3812;BME280;1921;49.368;11.068;2022-09-12T02:20:45;97797.00;;;11.91;100.00
3812;BME280;1921;49.368;11.068;2022-09-12T02:23:19;97804.84;;;11.91;100.00
3812;BME280;1921;49.368;11.068;2022-09-12T02:25:51;97753.47;;;11.69;100.00
3812;BME280;1921;49.368;11.068;2022-09-12T02:28:25;97771.66;;;11.77;100.00
3812;BME280;1921;49.368;11.068;2022-09-12T02:36:43;97826.56;;;12.06;100.00
3812;BME280;1921;49.368;11.068;2022-09-12T02:39:12;97777.13;;;11.67;100.00
3812;BME280;1921;49.368;11.068;2022-09-12T02:41:38;97755.44;;;11.67;100.00
3812;BME280;1921;49.368;11.068;2022-09-12T02:44:04;97821.69;;;12.03;100.00
3812;BME280;1921;49.368;11.068;2022-09-12T02:46:45;97821.97;;;12.08;100.00
3812;BME280;1921;49.368;11.068;2022-09-12T02:49:13;97768.56;;;11.73;100.00
3812;BME280;1921;49.368;11.068;2022-09-12T02:51:39;97763.25;;;11.67;100.00
3812;BME280;1921;49.368;11.068;2022-09-12T02:54:06;97765.72;;;11.68;100.00
3812;BME280;1921;49.368;11.068;2022-09-12T02:56:32;97758.59;;;11.62;100.00
3812;BME280;1921;49.368;11.068;2022-09-12T02:59:05;97776.50;;;11.65;100.00
3812;BME280;1921;49.368;11.068;2022-09-12T03:07:23;97823.31;;;12.04;100.00
3812;BME280;1921;49.368;11.068;2022-09-12T03:13:25;97817.25;;;12.04;100.00
3812;BME280;1921;49.368;11.068;2022-09-12T03:19:22;97740.22;;;11.55;100.00
3812;BME280;1921;49.368;11.068;2022-09-12T03:22:14;97791.34;;;11.88;100.00
3812;BME280;1921;49.368;11.068;2022-09-12T03:25:11;97785.72;;;11.76;100.00
3812;BME280;1921;49.368;11.068;2022-09-12T03:27:58;97809.56;;;11.73;100.00
3812;BME280;1921;49.368;11.068;2022-09-12T03:30:25;97780.38;;;11.40;100.00
3812;BME280;1921;49.368;11.068;2022-09-12T03:32:53;97769.91;;;11.40;100.00
3812;BME280;1921;49.368;11.068;2022-09-12T03:35:23;97761.38;;;11.46;100.00
3812;BME280;1921;49.368;11.068;2022-09-12T03:37:50;97787.50;;;11.60;100.00
3812;BME280;1921;49.368;11.068;2022-09-12T03:40:16;97764.59;;;11.48;100.00
3812;BME280;1921;49.368;11.068;2022-09-12T03:42:42;97784.44;;;11.57;100.00
3812;BME280;1921;49.368;11.068;2022-09-12T03:45:09;97799.22;;;11.50;100.00
3812;BME280;1921;49.368;11.068;2022-09-12T03:47:35;97765.59;;;11.32;100.00
3812;BME280;1921;49.368;11.068;2022-09-12T03:50:02;97790.34;;;11.36;100.00
3812;BME280;1921;49.368;11.068;2022-09-12T03:52:28;97825.84;;;11.45;100.00
3812;BME280;1921;49.368;11.068;2022-09-12T03:54:54;97777.09;;;11.23;100.00
3812;BME280;1921;49.368;11.068;2022-09-12T03:57:19;97778.38;;;11.27;100.00
3812;BME280;1921;49.368;11.068;2022-09-12T03:59:47;97783.06;;;11.31;100.00
3812;BME280;1921;49.368;11.068;2022-09-12T04:02:13;97785.22;;;11.28;100.00
3812;BME280;1921;49.368;11.068;2022-09-12T04:04:42;97810.03;;;11.24;100.00
3812;BME280;1921;49.368;11.068;2022-09-12T04:07:11;97808.91;;;11.41;100.00
3812;BME280;1921;49.368;11.068;2022-09-12T04:09:37;97828.03;;;11.56;100.00
3812;BME280;1921;49.368;11.068;2022-09-12T04:12:03;97779.66;;;11.31;100.00
3812;BME280;1921;49.368;11.068;2022-09-12T04:14:29;97775.22;;;11.31;100.00
3812;BME280;1921;49.368;11.068;2022-09-12T04:16:55;97829.94;;;11.63;100.00
3812;BME280;1921;49.368;11.068;2022-09-12T04:19:20;97774.06;;;11.34;100.00
3812;BME280;1921;49.368;11.068;2022-09-12T04:21:46;97804.44;;;11.50;100.00
3812;BME280;1921;49.368;11.068;2022-09-12T04:24:12;97779.75;;;11.38;100.00
3812;BME280;1921;49.368;11.068;2022-09-12T04:26:38;97768.53;;;11.29;100.00
3812;BME280;1921;49.368;11.068;2022-09-12T04:29:03;97828.94;;;11.64;100.00
3812;BME280;1921;49.368;11.068;2022-09-12T04:31:29;97759.63;;;11.23;100.00
3812;BME280;1921;49.368;11.068;2022-09-12T04:33:59;97785.69;;;11.31;100.00
3812;BME280;1921;49.368;11.068;2022-09-12T04:36:27;97787.47;;;11.31;100.00
3812;BME280;1921;49.368;11.068;2022-09-12T04:38:54;97806.00;;;11.36;100.00
3812;BME280;1921;49.368;11.068;2022-09-12T04:41:24;97787.19;;;11.26;100.00
3812;BME280;1921;49.368;11.068;2022-09-12T04:43:54;97776.00;;;11.17;100.00
3812;BME280;1921;49.368;11.068;2022-09-12T04:46:20;97801.88;;;11.27;100.00
3812;BME280;1921;49.368;11.068;2022-09-12T04:48:47;97796.94;;;11.32;100.00
3812;BME280;1921;49.368;11.068;2022-09-12T04:51:16;97765.41;;;11.19;100.00
3812;BME280;1921;49.368;11.068;2022-09-12T04:53:47;97782.59;;;11.28;100.00
3812;BME280;1921;49.368;11.068;2022-09-12T04:56:13;97811.06;;;11.38;100.00
3812;BME280;1921;49.368;11.068;2022-09-12T04:58:39;97761.59;;;11.07;100.00
3812;BME280;1921;49.368;11.068;2022-09-12T05:01:10;97820.88;;;11.36;100.00
3812;BME280;1921;49.368;11.068;2022-09-12T05:03:36;97787.44;;;11.16;100.00
3812;BME280;1921;49.368;11.068;2022-09-12T05:06:17;97808.78;;;11.20;100.00
3812;BME280;1921;49.368;11.068;2022-09-12T05:08:43;97751.69;;;10.79;100.00
3812;BME280;1921;49.368;11.068;2022-09-12T05:11:13;97782.50;;;10.98;100.00
3812;BME280;1921;49.368;11.068;2022-09-12T05:13:39;97801.13;;;11.18;100.00
3812;BME280;1921;49.368;11.068;2022-09-12T05:16:07;97808.41;;;11.23;100.00
3812;BME280;1921;49.368;11.068;2022-09-12T05:18:35;97840.72;;;11.45;100.00
3812;BME280;1921;49.368;11.068;2022-09-12T05:21:03;97792.13;;;11.21;100.00
3812;BME280;1921;49.368;11.068;2022-09-12T05:23:30;97793.44;;;11.17;100.00
3812;BME280;1921;49.368;11.068;2022-09-12T05:25:58;97808.72;;;11.43;100.00
3812;BME280;1921;49.368;11.068;2022-09-12T05:28:28;97788.56;;;11.37;100.00
3812;BME280;1921;49.368;11.068;2022-09-12T05:31:07;97796.56;;;11.35;100.00
3812;BME280;1921;49.368;11.068;2022-09-12T05:33:38;97839.97;;;11.74;100.00
3812;BME280;1921;49.368;11.068;2022-09-12T05:36:08;97797.22;;;11.37;100.00
3812;BME280;1921;49.368;11.068;2022-09-12T05:38:34;97787.78;;;11.51;100.00
3812;BME280;1921;49.368;11.068;2022-09-12T05:41:15;97824.00;;;11.69;100.00
3812;BME280;1921;49.368;11.068;2022-09-12T05:43:42;97779.56;;;11.54;100.00
3812;BME280;1921;49.368;11.068;2022-09-12T05:46:15;97779.94;;;11.66;100.00
3812;BME280;1921;49.368;11.068;2022-09-12T05:48:44;97797.19;;;11.90;100.00
3812;BME280;1921;49.368;11.068;2022-09-12T05:51:17;97788.88;;;11.86;100.00
3812;BME280;1921;49.368;11.068;2022-09-12T05:54:05;97844.84;;;12.21;100.00
3812;BME280;1921;49.368;11.068;2022-09-12T05:56:37;97800.69;;;11.97;100.00
3812;BME280;1921;49.368;11.068;2022-09-12T05:59:16;97753.19;;;11.78;100.00
3812;BME280;1921;49.368;11.068;2022-09-12T06:01:43;97790.06;;;12.13;100.00
3812;BME280;1921;49.368;11.068;2022-09-12T06:04:10;97822.56;;;12.40;100.00
3812;BME280;1921;49.368;11.068;2022-09-12T06:06:40;97862.16;;;12.73;100.00
3812;BME280;1921;49.368;11.068;2022-09-12T06:09:07;97813.03;;;12.54;100.00
3812;BME280;1921;49.368;11.068;2022-09-12T06:11:35;97831.75;;;12.72;100.00
3812;BME280;1921;49.368;11.068;2022-09-12T06:14:02;97826.53;;;12.72;100.00
3812;BME280;1921;49.368;11.068;2022-09-12T06:16:31;97808.00;;;12.52;100.00
3812;BME280;1921;49.368;11.068;2022-09-12T06:19:10;97834.69;;;12.84;100.00
3812;BME280;1921;49.368;11.068;2022-09-12T06:21:37;97858.84;;;13.01;100.00
3812;BME280;1921;49.368;11.068;2022-09-12T06:24:04;97820.47;;;12.72;100.00
3812;BME280;1921;49.368;11.068;2022-09-12T06:26:32;97824.41;;;13.04;100.00
3812;BME280;1921;49.368;11.068;2022-09-12T06:28:59;97858.72;;;13.09;100.00
3812;BME280;1921;49.368;11.068;2022-09-12T06:31:30;97798.94;;;13.12;100.00
3812;BME280;1921;49.368;11.068;2022-09-12T06:34:01;97784.72;;;13.22;100.00
3812;BME280;1921;49.368;11.068;2022-09-12T06:36:32;97776.34;;;12.47;100.00
3812;BME280;1921;49.368;11.068;2022-09-12T06:39:03;97855.88;;;12.68;100.00
3812;BME280;1921;49.368;11.068;2022-09-12T06:41:30;97834.81;;;11.80;100.00
3812;BME280;1921;49.368;11.068;2022-09-12T06:43:57;97843.06;;;12.07;100.00
3812;BME280;1921;49.368;11.068;2022-09-12T06:46:26;97850.84;;;12.87;100.00
3812;BME280;1921;49.368;11.068;2022-09-12T06:48:54;97800.81;;;13.18;100.00
3812;BME280;1921;49.368;11.068;2022-09-12T06:51:20;97778.88;;;13.47;100.00
3812;BME280;1921;49.368;11.068;2022-09-12T06:53:47;97800.72;;;13.55;100.00
3812;BME280;1921;49.368;11.068;2022-09-12T06:56:23;97798.19;;;14.09;100.00
3812;BME280;1921;49.368;11.068;2022-09-12T06:58:50;97759.34;;;13.85;100.00
3812;BME280;1921;49.368;11.068;2022-09-12T07:01:23;97793.56;;;14.59;100.00
3812;BME280;1921;49.368;11.068;2022-09-12T07:03:57;97784.91;;;14.72;100.00
3812;BME280;1921;49.368;11.068;2022-09-12T07:06:35;97810.44;;;15.38;100.00
3812;BME280;1921;49.368;11.068;2022-09-12T07:09:05;97788.81;;;15.62;100.00
3812;BME280;1921;49.368;11.068;2022-09-12T07:11:34;97833.75;;;16.32;100.00
3812;BME280;1921;49.368;11.068;2022-09-12T07:14:02;97810.72;;;16.65;100.00
3812;BME280;1921;49.368;11.068;2022-09-12T07:16:28;97828.31;;;17.10;100.00
3812;BME280;1921;49.368;11.068;2022-09-12T07:18:58;97807.81;;;17.12;100.00
3812;BME280;1921;49.368;11.068;2022-09-12T07:21:25;97801.75;;;17.36;100.00
3812;BME280;1921;49.368;11.068;2022-09-12T07:23:51;97833.09;;;17.19;90.15
3812;BME280;1921;49.368;11.068;2022-09-12T07:26:19;97825.97;;;17.52;89.39
3812;BME280;1921;49.368;11.068;2022-09-12T07:28:50;97774.56;;;17.61;94.50
3812;BME280;1921;49.368;11.068;2022-09-12T07:31:22;97813.38;;;18.34;94.90
3812;BME280;1921;49.368;11.068;2022-09-12T07:33:49;97819.97;;;18.91;94.46
3812;BME280;1921;49.368;11.068;2022-09-12T07:36:18;97825.72;;;19.42;89.70
3812;BME280;1921;49.368;11.068;2022-09-12T07:38:45;97798.91;;;19.50;84.25
3812;BME280;1921;49.368;11.068;2022-09-12T07:41:23;97789.72;;;19.52;82.80
3812;BME280;1921;49.368;11.068;2022-09-12T07:43:54;97827.44;;;19.36;76.77
3812;BME280;1921;49.368;11.068;2022-09-12T07:46:21;97804.75;;;18.75;78.13
3812;BME280;1921;49.368;11.068;2022-09-12T07:48:52;97769.97;;;18.29;79.30
3812;BME280;1921;49.368;11.068;2022-09-12T07:51:18;97781.56;;;18.10;85.78
3812;BME280;1921;49.368;11.068;2022-09-12T07:53:45;97793.13;;;18.46;81.36
3812;BME280;1921;49.368;11.068;2022-09-12T07:56:12;97792.28;;;17.97;82.08
3812;BME280;1921;49.368;11.068;2022-09-12T07:58:41;97843.16;;;18.59;84.39
3812;BME280;1921;49.368;11.068;2022-09-12T08:01:19;97848.34;;;19.26;83.56
3812;BME280;1921;49.368;11.068;2022-09-12T08:03:47;97807.78;;;18.90;81.13
3812;BME280;1921;49.368;11.068;2022-09-12T08:06:17;97773.78;;;18.82;81.06
3812;BME280;1921;49.368;11.068;2022-09-12T08:08:47;97799.94;;;19.37;80.97
3812;BME280;1921;49.368;11.068;2022-09-12T08:11:16;97809.88;;;19.88;78.94
3812;BME280;1921;49.368;11.068;2022-09-12T08:13:42;97810.09;;;20.62;77.53
3812;BME280;1921;49.368;11.068;2022-09-12T08:16:17;97821.50;;;21.08;77.46
3812;BME280;1921;49.368;11.068;2022-09-12T08:18:45;97846.00;;;21.61;73.85
3812;BME280;1921;49.368;11.068;2022-09-12T08:23:41;97792.41;;;21.81;71.11
3812;BME280;1921;49.368;11.068;2022-09-12T08:26:09;97805.84;;;22.35;69.03
3812;BME280;1921;49.368;11.068;2022-09-12T08:28:36;97838.47;;;22.96;68.17
3812;BME280;1921;49.368;11.068;2022-09-12T08:31:03;97860.78;;;23.54;66.23
3812;BME280;1921;49.368;11.068;2022-09-12T08:33:30;97818.75;;;23.56;61.14
3812;BME280;1921;49.368;11.068;2022-09-12T08:36:13;97803.72;;;24.24;63.36
3812;BME280;1921;49.368;11.068;2022-09-12T08:38:42;97830.75;;;24.53;58.97
3812;BME280;1921;49.368;11.068;2022-09-12T08:47:35;97837.91;;;25.31;56.42
3812;BME280;1921;49.368;11.068;2022-09-12T08:53:12;97792.34;;;27.21;49.58
3812;BME280;1921;49.368;11.068;2022-09-12T08:55:56;97785.28;;;26.96;49.60
3812;BME280;1921;49.368;11.068;2022-09-12T08:58:25;97830.25;;;26.94;48.88
3812;BME280;1921;49.368;11.068;2022-09-12T09:06:26;97838.69;;;25.16;53.84
3812;BME280;1921;49.368;11.068;2022-09-12T09:17:45;97819.13;;;24.12;56.79
3812;BME280;1921;49.368;11.068;2022-09-12T09:26:11;97823.72;;;26.71;49.67
3812;BME280;1921;49.368;11.068;2022-09-12T09:29:04;97779.31;;;26.00;50.08
3812;BME280;1921;49.368;11.068;2022-09-12T09:31:37;97770.97;;;24.29;54.65
3812;BME280;1921;49.368;11.068;2022-09-12T09:34:21;97825.22;;;24.65;56.59
3812;BME280;1921;49.368;11.068;2022-09-12T09:45:13;97788.00;;;30.32;38.29
3812;BME280;1921;49.368;11.068;2022-09-12T09:48:37;97800.50;;;31.23;38.03
3812;BME280;1921;49.368;11.068;2022-09-12T09:50:37;97779.97;;;31.80;37.62
3812;BME280;1921;49.368;11.068;2022-09-12T09:53:04;97769.44;;;32.19;35.55
3812;BME280;1921;49.368;11.068;2022-09-12T09:55:40;97790.84;;;32.81;34.63
3812;BME280;1921;49.368;11.068;2022-09-12T09:58:07;97724.25;;;32.67;33.90
3812;BME280;1921;49.368;11.068;2022-09-12T10:00:35;97745.28;;;33.35;33.61
3812;BME280;1921;49.368;11.068;2022-09-12T10:05:53;97727.81;;;34.17;31.76
3812;BME280;1921;49.368;11.068;2022-09-12T10:08:28;97782.81;;;34.80;31.58
3812;BME280;1921;49.368;11.068;2022-09-12T10:11:06;97774.75;;;34.51;30.41
3812;BME280;1921;49.368;11.068;2022-09-12T10:13:36;97783.03;;;28.62;39.75
3812;BME280;1921;49.368;11.068;2022-09-12T10:16:16;97784.69;;;26.99;44.77
3812;BME280;1921;49.368;11.068;2022-09-12T10:18:43;97773.56;;;28.89;40.44
3812;BME280;1921;49.368;11.068;2022-09-12T10:21:15;97780.59;;;30.88;35.72
3812;BME280;1921;49.368;11.068;2022-09-12T10:23:42;97732.41;;;31.08;34.02
3812;BME280;1921;49.368;11.068;2022-09-12T10:26:12;97726.94;;;31.84;33.87
3812;BME280;1921;49.368;11.068;2022-09-12T10:28:53;97724.88;;;32.90;32.83
3812;BME280;1921;49.368;11.068;2022-09-12T10:31:44;97739.53;;;33.62;30.81
3812;BME280;1921;49.368;11.068;2022-09-12T10:34:42;97770.69;;;33.68;31.27
3812;BME280;1921;49.368;11.068;2022-09-12T10:37:32;97772.38;;;32.57;31.73
3812;BME280;1921;49.368;11.068;2022-09-12T10:40:01;97721.50;;;31.14;34.34
3812;BME280;1921;49.368;11.068;2022-09-12T10:42:48;97748.72;;;29.62;37.61
3812;BME280;1921;49.368;11.068;2022-09-12T10:45:24;97743.13;;;27.41;41.01
3812;BME280;1921;49.368;11.068;2022-09-12T10:47:55;97705.84;;;28.73;39.97
3812;BME280;1921;49.368;11.068;2022-09-12T10:50:35;97774.59;;;31.35;36.17
3812;BME280;1921;49.368;11.068;2022-09-12T10:53:21;97766.34;;;32.86;32.19
3812;BME280;1921;49.368;11.068;2022-09-12T10:56:23;97718.63;;;33.71;31.22
3812;BME280;1921;49.368;11.068;2022-09-12T11:02:39;97725.03;;;33.11;32.38
3812;BME280;1921;49.368;11.068;2022-09-12T11:07:49;97737.78;;;33.58;30.32
3812;BME280;1921;49.368;11.068;2022-09-12T11:13:36;97771.09;;;25.66;44.90
3812;BME280;1921;49.368;11.068;2022-09-12T11:17:00;97760.06;;;26.09;43.13
3812;BME280;1921;49.368;11.068;2022-09-12T11:22:53;97752.97;;;28.65;40.82
3812;BME280;1921;49.368;11.068;2022-09-12T11:25:55;97708.94;;;30.64;35.26
3812;BME280;1921;49.368;11.068;2022-09-12T11:31:48;97705.59;;;31.26;33.96
3812;BME280;1921;49.368;11.068;2022-09-12T11:43:37;97743.00;;;32.99;32.37
3812;BME280;1921;49.368;11.068;2022-09-12T12:00:05;97730.59;;;27.36;41.65
3812;BME280;1921;49.368;11.068;2022-09-12T12:08:33;97716.63;;;29.38;35.87
3812;BME280;1921;49.368;11.068;2022-09-12T12:11:04;97700.28;;;28.32;37.60
3812;BME280;1921;49.368;11.068;2022-09-12T12:13:40;97726.59;;;28.67;37.47
3812;BME280;1921;49.368;11.068;2022-09-12T12:16:29;97730.31;;;26.70;41.22
3812;BME280;1921;49.368;11.068;2022-09-12T12:18:59;97687.03;;;27.26;39.11
3812;BME280;1921;49.368;11.068;2022-09-12T12:21:41;97717.03;;;28.61;36.97
3812;BME280;1921;49.368;11.068;2022-09-12T12:29:36;97680.97;;;29.33;34.80
3812;BME280;1921;49.368;11.068;2022-09-12T12:34:42;97638.97;;;27.40;39.23
3812;BME280;1921;49.368;11.068;2022-09-12T12:47:43;97639.81;;;28.02;36.75
3812;BME280;1921;49.368;11.068;2022-09-12T12:53:22;97681.88;;;24.20;45.77
3812;BME280;1921;49.368;11.068;2022-09-12T12:55:51;97645.41;;;23.05;47.96
3812;BME280;1921;49.368;11.068;2022-09-12T13:01:19;97681.44;;;25.30;44.23
3812;BME280;1921;49.368;11.068;2022-09-12T13:04:10;97651.22;;;25.49;43.75
3812;BME280;1921;49.368;11.068;2022-09-12T13:06:42;97634.19;;;24.33;43.94
3812;BME280;1921;49.368;11.068;2022-09-12T13:09:46;97680.16;;;23.73;47.91
3812;BME280;1921;49.368;11.068;2022-09-12T13:12:36;97651.38;;;23.27;48.37
3812;BME280;1921;49.368;11.068;2022-09-12T13:15:49;97669.88;;;24.22;45.30
3812;BME280;1921;49.368;11.068;2022-09-12T13:18:23;97653.59;;;25.56;41.89
3812;BME280;1921;49.368;11.068;2022-09-12T13:21:31;97622.34;;;27.14;39.07
3812;BME280;1921;49.368;11.068;2022-09-12T13:24:13;97628.13;;;28.11;36.16
3812;BME280;1921;49.368;11.068;2022-09-12T13:26:43;97614.69;;;28.82;34.70
3812;BME280;1921;49.368;11.068;2022-09-12T13:29:22;97598.56;;;29.42;33.50
3812;BME280;1921;49.368;11.068;2022-09-12T13:31:56;97629.19;;;29.96;33.48
3812;BME280;1921;49.368;11.068;2022-09-12T13:43:37;97603.25;;;30.36;31.92
3812;BME280;1921;49.368;11.068;2022-09-12T13:46:05;97612.13;;;30.37;32.50
3812;BME280;1921;49.368;11.068;2022-09-12T13:48:32;97595.47;;;30.12;32.42
3812;BME280;1921;49.368;11.068;2022-09-12T13:51:00;97606.31;;;30.43;32.99
3812;BME280;1921;49.368;11.068;2022-09-12T13:53:42;97581.69;;;30.50;32.86
3812;BME280;1921;49.368;11.068;2022-09-12T13:56:20;97583.31;;;30.60;32.28
3812;BME280;1921;49.368;11.068;2022-09-12T13:58:58;97601.81;;;30.75;33.64
3812;BME280;1921;49.368;11.068;2022-09-12T14:01:55;97583.09;;;30.70;32.24
3812;BME280;1921;49.368;11.068;2022-09-12T14:04:25;97591.06;;;29.94;33.37
3812;BME280;1921;49.368;11.068;2022-09-12T14:07:20;97574.25;;;26.74;38.99
3812;BME280;1921;49.368;11.068;2022-09-12T14:10:00;97600.09;;;26.21;40.25
3812;BME280;1921;49.368;11.068;2022-09-12T14:12:39;97582.34;;;26.35;41.19
3812;BME280;1921;49.368;11.068;2022-09-12T14:15:20;97573.41;;;27.32;39.02
3812;BME280;1921;49.368;11.068;2022-09-12T14:17:51;97599.97;;;27.52;38.73
3812;BME280;1921;49.368;11.068;2022-09-12T14:20:20;97566.41;;;27.55;37.60
3812;BME280;1921;49.368;11.068;2022-09-12T14:22:49;97583.38;;;28.63;36.37
3812;BME280;1921;49.368;11.068;2022-09-12T14:25:22;97555.28;;;29.30;35.48
3812;BME280;1921;49.368;11.068;2022-09-12T14:27:55;97580.34;;;30.02;34.33
3812;BME280;1921;49.368;11.068;2022-09-12T14:30:37;97584.47;;;30.67;33.11
3812;BME280;1921;49.368;11.068;2022-09-12T14:35:40;97605.00;;;31.17;32.23
3812;BME280;1921;49.368;11.068;2022-09-12T14:38:32;97608.63;;;31.43;32.54
3812;BME280;1921;49.368;11.068;2022-09-12T14:41:04;97548.91;;;31.19;31.62
3812;BME280;1921;49.368;11.068;2022-09-12T14:43:44;97550.06;;;31.35;31.20
3812;BME280;1921;49.368;11.068;2022-09-12T14:46:25;97585.84;;;31.75;30.44
3812;BME280;1921;49.368;11.068;2022-09-12T14:51:47;97595.81;;;29.97;32.36
3812;BME280;1921;49.368;11.068;2022-09-12T14:59:36;97589.91;;;29.45;33.79
3812;BME280;1921;49.368;11.068;2022-09-12T15:02:22;97586.47;;;29.81;32.95
3812;BME280;1921;49.368;11.068;2022-09-12T15:10:36;97531.28;;;28.78;34.00
3812;BME280;1921;49.368;11.068;2022-09-12T15:15:35;97537.53;;;28.87;34.05
3812;BME280;1921;49.368;11.068;2022-09-12T15:18:03;97512.16;;;28.52;34.27
3812;BME280;1921;49.368;11.068;2022-09-12T15:20:31;97532.25;;;28.68;35.03
3812;BME280;1921;49.368;11.068;2022-09-12T15:22:57;97560.13;;;28.86;34.30
3812;BME280;1921;49.368;11.068;2022-09-12T15:25:23;97562.03;;;29.00;34.82
3812;BME280;1921;49.368;11.068;2022-09-12T15:27:52;97551.28;;;29.41;34.31
3812;BME280;1921;49.368;11.068;2022-09-12T15:30:18;97571.28;;;30.12;33.10
3812;BME280;1921;49.368;11.068;2022-09-12T15:32:44;97565.41;;;29.60;33.98
3812;BME280;1921;49.368;11.068;2022-09-12T15:35:18;97533.91;;;29.11;33.92
3812;BME280;1921;49.368;11.068;2022-09-12T15:37:44;97543.84;;;28.96;34.29
3812;BME280;1921;49.368;11.068;2022-09-12T15:40:13;97439.84;;;29.38;33.35
3812;BME280;1921;49.368;11.068;2022-09-12T15:42:40;97472.72;;;27.69;35.65
3812;BME280;1921;49.368;11.068;2022-09-12T15:45:21;97528.97;;;28.06;36.59
3812;BME280;1921;49.368;11.068;2022-09-12T15:47:48;97503.94;;;28.76;34.27
3812;BME280;1921;49.368;11.068;2022-09-12T15:50:14;97508.91;;;29.52;33.75
3812;BME280;1921;49.368;11.068;2022-09-12T15:52:41;97551.78;;;30.60;32.43
3812;BME280;1921;49.368;11.068;2022-09-12T15:55:28;97517.63;;;31.00;31.83
3812;BME280;1921;49.368;11.068;2022-09-12T15:57:54;97524.91;;;31.57;30.75
3812;BME280;1921;49.368;11.068;2022-09-12T16:00:21;97544.44;;;31.62;31.43
3812;BME280;1921;49.368;11.068;2022-09-12T16:02:50;97504.22;;;30.69;31.74
3812;BME280;1921;49.368;11.068;2022-09-12T16:05:24;97537.91;;;30.13;32.59
3812;BME280;1921;49.368;11.068;2022-09-12T16:07:52;97560.25;;;29.36;34.34
3812;BME280;1921;49.368;11.068;2022-09-12T16:10:28;97547.28;;;28.37;36.12
3812;BME280;1921;49.368;11.068;2022-09-12T16:12:55;97519.19;;;27.83;37.21
3812;BME280;1921;49.368;11.068;2022-09-12T16:15:23;97497.47;;;27.98;36.53
3812;BME280;1921;49.368;11.068;2022-09-12T16:17:49;97514.06;;;28.65;35.54
3812;BME280;1921;49.368;11.068;2022-09-12T16:20:16;97514.84;;;28.52;35.38
3812;BME280;1921;49.368;11.068;2022-09-12T16:22:42;97497.09;;;28.84;34.72
3812;BME280;1921;49.368;11.068;2022-09-12T16:25:08;97474.69;;;28.47;35.56
3812;BME280;1921;49.368;11.068;2022-09-12T16:27:36;97522.69;;;28.95;35.14
3812;BME280;1921;49.368;11.068;2022-09-12T16:30:04;97518.13;;;28.63;35.96